Time;durP1;ratioP1;P1;durP2;ratioP2;P2;SDS_P1;SDS_P2;PMS_P1;PMS_P2;Temp;Humidity;BMP_temperature;BMP_pressure;BME280_temperature;BME280_humidity;BME280_pressure;Samples;Min_cycle;Max_cycle;Signal;HPM_P1;HPM_P2
2021/04/22 00:00:10;;;;;;;3.53;2.97;;;11.00;99.90;;;;;;5090322;28;20212;-71
2021/04/22 00:02:37;;;;;;;6.77;2.17;;;11.00;99.90;;;;;;5090372;28;20693;-71
2021/04/22 00:05:10;;;;;;;1.73;1.63;;;11.00;99.90;;;;;;5090094;28;20600;-74
2021/04/22 00:07:37;;;;;;;2.23;2.03;;;11.00;99.90;;;;;;5088552;28;20570;-74
2021/04/22 00:10:08;;;;;;;2.87;2.20;;;10.90;99.90;;;;;;5077703;28;20210;-74
2021/04/22 00:12:35;;;;;;;2.07;1.70;;;11.00;99.90;;;;;;5090084;28;20213;-72
2021/04/22 00:15:02;;;;;;;1.80;1.70;;;11.00;99.90;;;;;;5090069;28;20225;-72
2021/04/22 00:17:28;;;;;;;2.10;1.90;;;10.90;99.90;;;;;;5093264;28;20205;-73
2021/04/22 00:19:55;;;;;;;2.40;1.73;;;10.90;99.90;;;;;;5094403;28;20254;-72
2021/04/22 00:22:21;;;;;;;3.83;2.10;;;10.90;99.90;;;;;;5093761;28;20259;-73
2021/04/22 00:24:49;;;;;;;2.23;2.07;;;11.00;99.90;;;;;;5094153;28;20205;-73
2021/04/22 00:27:15;;;;;;;2.93;2.43;;;10.90;99.90;;;;;;5093713;28;20297;-73
2021/04/22 00:29:42;;;;;;;1.50;1.40;;;10.90;99.90;;;;;;5094004;28;20231;-72
2021/04/22 00:32:08;;;;;;;2.03;1.87;;;10.90;99.90;;;;;;5093789;28;20255;-75
2021/04/22 00:34:35;;;;;;;3.43;2.17;;;10.90;99.90;;;;;;5093733;28;20650;-74
2021/04/22 00:37:01;;;;;;;4.73;2.70;;;10.90;99.90;;;;;;5093555;28;20673;-72
2021/04/22 00:39:28;;;;;;;1.70;1.60;;;10.90;99.90;;;;;;5094073;28;20677;-74
2021/04/22 00:41:55;;;;;;;2.93;2.00;;;10.80;99.90;;;;;;5093877;28;20206;-74
2021/04/22 00:44:22;;;;;;;3.23;2.03;;;10.80;99.90;;;;;;5093629;28;20209;-71
2021/04/22 00:46:49;;;;;;;2.63;1.50;;;10.80;99.90;;;;;;5093787;28;20201;-71
2021/04/22 00:49:16;;;;;;;1.80;1.70;;;10.90;99.90;;;;;;5093284;28;20218;-71
2021/04/22 00:51:43;;;;;;;1.97;1.70;;;10.90;99.90;;;;;;5093212;28;20213;-70
2021/04/22 00:54:10;;;;;;;2.23;1.50;;;10.90;99.90;;;;;;5093364;28;20300;-71
2021/04/22 00:56:36;;;;;;;2.53;1.83;;;10.90;99.90;;;;;;5093636;28;20214;-70
2021/04/22 00:59:04;;;;;;;2.97;1.50;;;10.80;99.90;;;;;;5092923;28;20229;-70
2021/04/22 01:01:31;;;;;;;6.60;2.20;;;10.80;99.90;;;;;;5093581;28;20206;-71
2021/04/22 01:03:57;;;;;;;2.53;2.17;;;10.80;99.90;;;;;;5093669;28;20212;-70
2021/04/22 01:06:24;;;;;;;1.83;1.73;;;10.80;99.90;;;;;;5093441;28;20210;-69
2021/04/22 01:08:50;;;;;;;2.70;1.57;;;10.90;99.90;;;;;;5093352;28;20258;-70
2021/04/22 01:11:17;;;;;;;2.00;1.90;;;10.80;99.90;;;;;;5092725;28;20202;-72
2021/04/22 01:13:43;;;;;;;3.67;2.07;;;10.90;99.90;;;;;;5093379;28;20263;-73
2021/04/22 01:16:10;;;;;;;3.67;2.17;;;10.90;99.90;;;;;;5092501;28;20216;-73
2021/04/22 01:18:37;;;;;;;2.33;2.10;;;10.90;99.90;;;;;;5093100;28;20202;-72
2021/04/22 01:21:04;;;;;;;2.40;2.20;;;10.80;99.90;;;;;;5092739;28;20210;-73
2021/04/22 01:23:31;;;;;;;3.90;1.73;;;10.80;99.90;;;;;;5093178;28;20205;-70
2021/04/22 01:25:58;;;;;;;2.20;1.70;;;10.80;99.90;;;;;;5093496;28;20330;-71
2021/04/22 01:28:26;;;;;;;3.37;1.87;;;10.80;99.90;;;;;;5092153;28;20696;-70
2021/04/22 01:30:55;;;;;;;2.87;1.80;;;10.80;99.90;;;;;;5092757;28;20206;-71
2021/04/22 01:33:24;;;;;;;2.40;2.20;;;10.80;99.90;;;;;;5091908;28;20669;-69
2021/04/22 01:35:52;;;;;;;1.93;1.80;;;10.80;99.90;;;;;;5092837;28;20209;-72
2021/04/22 01:38:19;;;;;;;2.17;1.97;;;10.80;99.90;;;;;;5092173;28;20263;-72
2021/04/22 01:40:47;;;;;;;2.97;2.27;;;10.80;99.90;;;;;;5092561;28;20669;-71
2021/04/22 01:43:14;;;;;;;4.50;1.63;;;10.80;99.90;;;;;;5092379;28;20572;-72
2021/04/22 01:45:40;;;;;;;3.57;2.60;;;10.80;99.90;;;;;;5092727;28;20202;-72
2021/04/22 01:48:08;;;;;;;4.13;2.37;;;10.80;99.90;;;;;;5083282;28;20235;-72
2021/04/22 01:50:37;;;;;;;3.00;2.20;;;10.80;99.90;;;;;;5092845;28;20209;-73
2021/04/22 01:53:06;;;;;;;2.00;1.80;;;10.80;99.90;;;;;;5091634;28;20588;-70
2021/04/22 01:55:35;;;;;;;2.17;1.87;;;10.90;99.90;;;;;;5092456;28;20239;-72
2021/04/22 01:58:04;;;;;;;2.93;2.03;;;10.80;99.90;;;;;;5092070;28;20619;-70
2021/04/22 02:00:33;;;;;;;2.27;2.07;;;10.90;99.90;;;;;;5092264;28;20206;-72
2021/04/22 02:03:00;;;;;;;2.43;2.23;;;10.80;99.90;;;;;;5092253;28;20197;-73
2021/04/22 02:05:27;;;;;;;1.53;1.43;;;10.80;99.90;;;;;;5092580;28;20205;-73
2021/04/22 02:07:53;;;;;;;1.77;1.67;;;10.80;99.90;;;;;;5091941;28;20201;-73
2021/04/22 02:10:20;;;;;;;4.13;2.20;;;10.80;99.90;;;;;;5091860;28;20209;-70
2021/04/22 02:12:47;;;;;;;8.50;2.53;;;10.80;99.90;;;;;;5091699;28;20746;-71
2021/04/22 02:15:18;;;;;;;3.83;2.10;;;10.70;99.90;;;;;;5091800;28;20233;-72
2021/04/22 02:17:45;;;;;;;2.60;2.40;;;10.70;99.90;;;;;;5091980;28;20202;-72
2021/04/22 02:20:14;;;;;;;7.37;2.10;;;10.70;99.90;;;;;;5091882;28;20201;-71
2021/04/22 02:22:40;;;;;;;2.73;1.80;;;10.80;99.90;;;;;;5091461;28;20211;-73
2021/04/22 02:25:09;;;;;;;2.67;2.47;;;10.80;99.90;;;;;;5091334;28;20586;-72
2021/04/22 02:27:36;;;;;;;3.80;2.93;;;10.80;99.90;;;;;;5091650;28;20216;-74
2021/04/22 02:30:06;;;;;;;3.77;1.83;;;10.70;99.90;;;;;;5091263;28;20206;-70
2021/04/22 02:32:33;;;;;;;1.57;1.47;;;10.70;99.90;;;;;;5092026;28;20205;-71
2021/04/22 02:35:00;;;;;;;2.67;1.53;;;10.80;99.90;;;;;;5091626;28;20237;-69
2021/04/22 02:37:27;;;;;;;2.40;2.20;;;10.70;99.90;;;;;;5091622;28;20568;-69
2021/04/22 02:39:53;;;;;;;2.07;1.87;;;10.70;99.90;;;;;;5090753;28;20205;-74
2021/04/22 02:42:20;;;;;;;1.60;1.50;;;10.70;99.90;;;;;;5091231;28;20704;-69
2021/04/22 02:44:46;;;;;;;1.80;1.57;;;10.70;99.90;;;;;;5091657;28;20209;-70
2021/04/22 02:47:13;;;;;;;3.30;1.60;;;10.80;99.90;;;;;;5090879;28;20213;-73
2021/04/22 02:49:41;;;;;;;2.70;1.47;;;10.80;99.90;;;;;;5091392;28;20297;-70
2021/04/22 02:52:08;;;;;;;2.53;1.80;;;10.80;99.90;;;;;;5090504;28;20672;-71
2021/04/22 02:54:35;;;;;;;2.17;2.07;;;10.80;99.90;;;;;;5091147;28;20306;-73
2021/04/22 02:57:01;;;;;;;2.37;2.13;;;10.80;99.90;;;;;;5090777;28;20283;-71
2021/04/22 02:59:28;;;;;;;2.17;1.97;;;10.80;99.90;;;;;;5091826;28;20228;-72
2021/04/22 03:01:54;;;;;;;2.00;1.90;;;10.80;99.90;;;;;;5091722;28;20251;-70
2021/04/22 03:04:20;;;;;;;3.23;1.83;;;10.60;99.90;;;;;;5090635;28;20641;-70
2021/04/22 03:06:48;;;;;;;2.77;1.90;;;10.60;99.90;;;;;;5091054;28;20201;-70
2021/04/22 03:09:15;;;;;;;2.17;1.97;;;10.70;99.90;;;;;;5090619;28;20197;-70
2021/04/22 03:11:41;;;;;;;2.03;1.83;;;10.60;99.90;;;;;;5091323;28;20202;-71
2021/04/22 03:14:08;;;;;;;2.03;1.77;;;10.70;99.90;;;;;;5090370;28;20612;-71
2021/04/22 03:16:34;;;;;;;2.60;2.27;;;10.60;99.90;;;;;;5091096;28;20212;-69
2021/04/22 03:19:01;;;;;;;2.73;2.33;;;10.60;99.90;;;;;;5090315;28;20237;-68
2021/04/22 03:21:27;;;;;;;2.70;2.40;;;10.60;99.90;;;;;;5091127;28;20206;-70
2021/04/22 03:23:55;;;;;;;3.20;1.80;;;10.60;99.90;;;;;;5091223;28;20206;-69
2021/04/22 03:26:22;;;;;;;4.17;1.73;;;10.60;99.90;;;;;;5090135;28;20202;-70
2021/04/22 03:28:48;;;;;;;2.87;1.57;;;10.60;99.90;;;;;;5090953;28;20329;-69
2021/04/22 03:31:15;;;;;;;2.70;2.10;;;10.60;99.90;;;;;;5090106;28;20205;-71
2021/04/22 03:33:41;;;;;;;1.93;1.80;;;10.60;99.90;;;;;;5090696;28;20228;-70
2021/04/22 03:36:08;;;;;;;2.47;1.93;;;10.50;99.90;;;;;;5090002;28;20626;-71
2021/04/22 03:38:34;;;;;;;3.20;2.20;;;10.50;99.90;;;;;;5090793;28;20263;-72
2021/04/22 03:41:02;;;;;;;1.80;1.60;;;10.50;99.90;;;;;;5090287;28;20213;-72
2021/04/22 03:43:28;;;;;;;3.47;1.67;;;10.50;99.90;;;;;;5090572;28;20212;-72
2021/04/22 03:45:55;;;;;;;2.10;1.93;;;10.40;99.90;;;;;;5090923;28;20210;-71
2021/04/22 03:48:21;;;;;;;1.73;1.63;;;10.50;99.90;;;;;;5089989;28;20221;-70
2021/04/22 03:50:47;;;;;;;3.27;2.23;;;10.60;99.90;;;;;;5092371;28;20201;-72
2021/04/22 03:53:14;;;;;;;3.67;2.50;;;10.50;99.90;;;;;;5094396;28;20209;-72
2021/04/22 03:55:40;;;;;;;2.20;2.00;;;10.50;99.90;;;;;;5094478;28;20255;-72
2021/04/22 03:58:08;;;;;;;2.97;2.60;;;10.50;99.90;;;;;;5094564;28;20208;-72
2021/04/22 04:00:34;;;;;;;4.47;2.20;;;10.40;99.90;;;;;;5094556;28;20205;-71
2021/04/22 04:03:01;;;;;;;2.37;2.27;;;10.50;99.90;;;;;;5094099;28;20255;-73
2021/04/22 04:05:27;;;;;;;3.50;2.10;;;10.50;99.90;;;;;;5094778;28;20289;-70
2021/04/22 04:07:54;;;;;;;2.33;1.73;;;10.50;99.90;;;;;;5095004;28;20254;-70
2021/04/22 04:10:21;;;;;;;3.33;2.30;;;10.50;99.90;;;;;;5094327;28;20206;-68
2021/04/22 04:12:47;;;;;;;2.37;2.17;;;10.50;99.90;;;;;;5094338;28;20208;-70
2021/04/22 04:15:16;;;;;;;2.60;2.40;;;10.50;99.90;;;;;;5094089;28;20236;-70
2021/04/22 04:17:42;;;;;;;3.03;2.83;;;10.40;99.90;;;;;;5094034;28;20201;-69
2021/04/22 04:20:11;;;;;;;3.50;2.07;;;10.40;99.90;;;;;;5093906;28;20220;-69
2021/04/22 04:22:38;;;;;;;4.33;3.10;;;10.40;99.90;;;;;;5094037;28;20201;-69
2021/04/22 04:25:06;;;;;;;5.03;2.80;;;10.40;99.90;;;;;;5093741;28;20671;-70
2021/04/22 04:27:33;;;;;;;3.33;2.73;;;10.30;99.90;;;;;;5087100;28;20206;-71
2021/04/22 04:29:59;;;;;;;3.43;2.17;;;10.30;99.90;;;;;;5090163;28;20201;-70
2021/04/22 04:32:26;;;;;;;3.67;2.60;;;10.30;99.90;;;;;;5093822;28;20221;-70
2021/04/22 04:34:53;;;;;;;9.03;2.60;;;10.40;99.90;;;;;;5081637;28;20602;-72
2021/04/22 04:37:20;;;;;;;3.43;2.67;;;10.40;99.90;;;;;;5093904;28;20213;-72
2021/04/22 04:39:46;;;;;;;4.63;2.53;;;10.30;99.90;;;;;;5081870;28;20209;-70
2021/04/22 04:42:13;;;;;;;4.27;3.00;;;10.30;99.90;;;;;;5089311;28;20228;-71
2021/04/22 04:44:40;;;;;;;4.40;2.63;;;10.20;99.90;;;;;;5093932;28;20210;-69
2021/04/22 04:47:06;;;;;;;3.47;2.67;;;10.20;99.90;;;;;;5079503;28;20288;-71
2021/04/22 04:49:34;;;;;;;3.47;3.10;;;10.20;99.90;;;;;;5093928;28;20205;-70
2021/04/22 04:52:00;;;;;;;2.60;2.37;;;10.30;99.90;;;;;;5093068;28;20214;-70
2021/04/22 04:54:27;;;;;;;3.13;2.83;;;10.20;99.90;;;;;;5093727;28;20233;-71
2021/04/22 04:56:54;;;;;;;5.13;3.07;;;10.30;99.90;;;;;;5093629;28;20615;-72
2021/04/22 04:59:21;;;;;;;2.77;2.50;;;10.30;99.90;;;;;;5092816;28;20209;-73
2021/04/22 05:01:47;;;;;;;6.60;3.07;;;10.20;99.90;;;;;;5092782;28;20206;-72
2021/04/22 05:04:15;;;;;;;3.23;2.93;;;10.30;99.90;;;;;;5092670;28;20684;-70
2021/04/22 05:06:42;;;;;;;3.23;2.40;;;10.30;99.90;;;;;;5093428;28;20202;-72
2021/04/22 05:09:08;;;;;;;2.50;2.27;;;10.40;99.90;;;;;;5092921;28;20206;-71
2021/04/22 05:11:35;;;;;;;4.53;2.57;;;10.40;99.90;;;;;;5093524;28;20216;-71
2021/04/22 05:14:03;;;;;;;2.93;2.73;;;10.40;99.90;;;;;;5092516;28;20274;-71
2021/04/22 05:16:30;;;;;;;3.47;2.63;;;10.40;99.90;;;;;;5093054;28;20217;-73
2021/04/22 05:18:57;;;;;;;4.27;2.70;;;10.40;99.90;;;;;;5093494;28;20209;-73
2021/04/22 05:21:23;;;;;;;4.93;2.93;;;10.40;99.90;;;;;;5092887;28;20277;-72
2021/04/22 05:23:51;;;;;;;2.70;2.50;;;10.50;99.90;;;;;;5093096;28;20589;-71
2021/04/22 05:26:19;;;;;;;3.80;3.40;;;10.60;99.90;;;;;;5092161;28;20209;-73
2021/04/22 05:28:46;;;;;;;3.93;2.77;;;10.60;99.90;;;;;;5092390;28;20262;-71
2021/04/22 05:31:13;;;;;;;3.20;2.87;;;10.60;99.90;;;;;;5074161;28;20210;-70
2021/04/22 05:33:40;;;;;;;6.93;3.20;;;10.70;99.90;;;;;;5092971;28;20209;-70
2021/04/22 05:36:07;;;;;;;4.67;3.03;;;10.70;99.90;;;;;;5092154;28;20296;-71
2021/04/22 05:38:34;;;;;;;2.87;2.57;;;10.70;99.90;;;;;;5093005;28;20208;-72
2021/04/22 05:41:03;;;;;;;4.77;2.80;;;10.70;99.90;;;;;;5092193;28;20263;-71
2021/04/22 05:43:29;;;;;;;4.13;3.30;;;10.80;99.90;;;;;;5068840;28;20203;-71
2021/04/22 05:45:56;;;;;;;4.03;2.93;;;10.90;99.90;;;;;;5066040;28;20221;-70
2021/04/22 05:48:22;;;;;;;4.17;3.77;;;10.90;99.90;;;;;;5079745;28;20220;-72
2021/04/22 05:50:49;;;;;;;4.77;3.80;;;11.10;99.90;;;;;;5065770;28;20203;-73
2021/04/22 05:53:16;;;;;;;4.20;2.97;;;11.20;99.90;;;;;;5071076;28;20234;-73
2021/04/22 05:55:43;;;;;;;3.97;2.60;;;11.20;99.90;;;;;;5077061;28;20229;-73
2021/04/22 05:58:10;;;;;;;3.93;3.10;;;11.30;99.90;;;;;;5092225;28;20258;-73
2021/04/22 06:00:37;;;;;;;6.47;2.97;;;11.50;99.90;;;;;;5092087;28;20229;-73
2021/04/22 06:03:05;;;;;;;3.47;3.17;;;11.50;99.90;;;;;;5075306;28;20199;-74
2021/04/22 06:05:31;;;;;;;4.53;3.33;;;11.50;99.90;;;;;;5081906;28;20214;-72
2021/04/22 06:07:58;;;;;;;11.00;3.73;;;11.60;99.90;;;;;;5086970;28;20205;-71
2021/04/22 06:10:25;;;;;;;3.83;2.97;;;11.60;99.90;;;;;;5084532;28;20220;-71
2021/04/22 06:12:52;;;;;;;3.47;3.17;;;11.70;99.90;;;;;;5091744;28;20661;-68
2021/04/22 06:15:20;;;;;;;3.87;3.10;;;11.70;99.90;;;;;;5090457;28;20643;-72
2021/04/22 06:17:47;;;;;;;4.17;2.93;;;11.70;99.90;;;;;;5091746;28;20208;-73
2021/04/22 06:20:17;;;;;;;3.90;2.80;;;11.70;99.90;;;;;;5085180;28;20289;-73
2021/04/22 06:22:43;;;;;;;4.30;3.90;;;11.80;99.90;;;;;;5087362;28;20699;-73
2021/04/22 06:25:11;;;;;;;3.43;2.93;;;11.90;99.90;;;;;;5079195;28;20206;-72
2021/04/22 06:27:38;;;;;;;4.27;3.87;;;12.00;99.90;;;;;;5091533;28;20661;-72
2021/04/22 06:30:06;;;;;;;5.23;3.60;;;12.20;99.90;;;;;;5067270;28;20206;-73
2021/04/22 06:32:33;;;;;;;3.67;2.60;;;12.20;99.90;;;;;;5073634;28;20207;-71
2021/04/22 06:35:00;;;;;;;3.27;2.97;;;12.20;99.90;;;;;;5075690;28;20248;-72
2021/04/22 06:37:26;;;;;;;3.17;2.90;;;12.30;99.90;;;;;;5073965;28;20202;-71
2021/04/22 06:39:53;;;;;;;3.80;3.40;;;12.30;99.90;;;;;;5075670;28;20202;-71
2021/04/22 06:42:19;;;;;;;3.87;3.03;;;12.40;99.90;;;;;;5066525;28;20233;-71
2021/04/22 06:44:46;;;;;;;4.30;3.27;;;12.70;99.90;;;;;;5074270;28;20682;-71
2021/04/22 06:47:13;;;;;;;6.97;2.67;;;12.70;99.90;;;;;;5073488;28;20213;-71
2021/04/22 06:49:40;;;;;;;3.30;3.00;;;12.70;99.90;;;;;;5073178;28;20623;-72
2021/04/22 06:52:07;;;;;;;4.10;3.10;;;12.70;99.90;;;;;;5074778;28;20584;-71
2021/04/22 06:54:33;;;;;;;3.47;2.53;;;12.80;99.90;;;;;;5072148;28;20317;-73
2021/04/22 06:57:00;;;;;;;4.40;2.70;;;13.00;99.90;;;;;;5086034;28;20580;-72
2021/04/22 06:59:27;;;;;;;5.50;2.70;;;13.10;99.90;;;;;;5058557;28;20202;-72
2021/04/22 07:01:53;;;;;;;3.17;2.87;;;13.10;99.90;;;;;;5076984;28;20271;-72
2021/04/22 07:04:20;;;;;;;3.30;3.00;;;13.20;99.90;;;;;;5088999;28;20209;-71
2021/04/22 07:06:48;;;;;;;5.23;3.13;;;13.20;99.90;;;;;;5090960;28;20267;-72
2021/04/22 07:09:16;;;;;;;6.83;3.60;;;13.10;99.90;;;;;;5090284;28;20201;-72
2021/04/22 07:11:42;;;;;;;6.33;3.30;;;13.30;99.90;;;;;;5083696;28;20305;-71
2021/04/22 07:14:09;;;;;;;3.13;2.60;;;13.40;99.90;;;;;;5082985;28;20256;-69
2021/04/22 07:16:36;;;;;;;3.33;2.50;;;13.30;99.90;;;;;;5077157;28;20212;-69
2021/04/22 07:19:03;;;;;;;4.50;2.50;;;13.30;99.90;;;;;;5090299;28;20264;-70
2021/04/22 07:21:30;;;;;;;3.97;2.63;;;13.40;99.90;;;;;;5079419;28;20202;-70
2021/04/22 07:23:57;;;;;;;4.37;2.90;;;13.40;99.90;;;;;;5089524;28;20205;-70
2021/04/22 07:26:24;;;;;;;3.90;3.20;;;13.40;99.90;;;;;;5087746;28;20197;-71
2021/04/22 07:28:50;;;;;;;4.33;2.80;;;13.40;99.90;;;;;;5080165;28;20206;-69
2021/04/22 07:31:17;;;;;;;3.17;2.83;;;13.50;99.90;;;;;;5071286;28;20198;-68
2021/04/22 07:33:44;;;;;;;5.13;2.77;;;13.70;99.90;;;;;;5059426;28;20203;-68
2021/04/22 07:36:10;;;;;;;2.63;2.30;;;13.80;99.90;;;;;;5056924;28;20234;-67
2021/04/22 07:38:37;;;;;;;6.10;2.40;;;13.90;99.90;;;;;;5067877;28;20198;-67
2021/04/22 07:41:05;;;;;;;5.80;2.60;;;13.80;99.90;;;;;;5056928;28;20202;-68
2021/04/22 07:43:31;;;;;;;5.60;2.43;;;14.20;99.90;;;;;;5076488;28;20229;-68
2021/04/22 07:45:58;;;;;;;4.38;2.60;;;14.30;99.90;;;;;;5073455;28;20206;-68
2021/04/22 07:48:25;;;;;;;5.18;3.33;;;14.40;99.90;;;;;;5072303;28;20275;-72
2021/04/22 07:50:51;;;;;;;3.83;2.42;;;14.40;99.90;;;;;;5064522;28;20674;-68
2021/04/22 07:53:18;;;;;;;2.88;2.13;;;14.60;99.90;;;;;;5077065;28;20271;-68
2021/04/22 07:55:46;;;;;;;5.43;2.70;;;14.50;99.90;;;;;;5079228;28;20305;-69
2021/04/22 07:58:15;;;;;;;3.92;2.72;;;14.30;99.90;;;;;;5071064;28;20752;-70
2021/04/22 08:00:42;;;;;;;5.40;2.17;;;14.50;99.90;;;;;;5069201;28;20240;-69
2021/04/22 08:03:08;;;;;;;3.03;2.72;;;14.50;99.90;;;;;;5070503;28;20202;-69
2021/04/22 08:05:37;;;;;;;4.47;2.80;;;14.70;99.90;;;;;;5071024;28;20296;-68
2021/04/22 08:08:06;;;;;;;6.72;2.63;;;14.70;99.90;;;;;;5083157;28;20202;-70
2021/04/22 08:10:38;;;;;;;4.47;2.65;;;14.90;99.90;;;;;;5060638;28;20675;-68
2021/04/22 08:13:05;;;;;;;3.28;2.42;;;14.70;99.90;;;;;;5069695;28;20202;-69
2021/04/22 08:15:34;;;;;;;3.05;2.75;;;15.20;99.90;;;;;;5072795;28;20252;-71
2021/04/22 08:18:02;;;;;;;5.13;2.35;;;15.30;99.90;;;;;;5075294;28;20193;-68
2021/04/22 08:20:29;;;;;;;6.07;2.67;;;15.40;99.90;;;;;;5072851;28;20537;-70
2021/04/22 08:22:57;;;;;;;4.13;2.17;;;15.40;99.90;;;;;;5077441;28;20205;-69
2021/04/22 08:25:28;;;;;;;3.13;2.10;;;15.40;99.90;;;;;;5067637;28;20209;-69
2021/04/22 08:27:56;;;;;;;4.68;2.40;;;15.60;99.90;;;;;;5082620;28;20666;-68
2021/04/22 08:30:25;;;;;;;2.75;2.53;;;15.80;99.90;;;;;;5083231;28;20213;-67
2021/04/22 08:32:53;;;;;;;4.75;2.33;;;15.70;99.90;;;;;;5069742;28;20206;-66
2021/04/22 08:35:20;;;;;;;4.30;1.73;;;15.50;99.90;;;;;;5083408;28;20236;-69
2021/04/22 08:37:46;;;;;;;1.77;1.40;;;16.10;99.90;;;;;;5075510;28;20566;-67
2021/04/22 08:40:14;;;;;;;2.95;2.58;;;16.10;99.90;;;;;;5090087;28;20206;-66
2021/04/22 08:42:41;;;;;;;2.05;1.88;;;15.80;99.90;;;;;;5089949;28;20205;-67
2021/04/22 08:45:10;;;;;;;2.25;1.83;;;16.30;99.90;;;;;;5088562;28;20213;-65
2021/04/22 08:47:36;;;;;;;3.67;1.75;;;16.10;99.90;;;;;;5090998;28;20286;-67
2021/04/22 08:50:06;;;;;;;2.60;1.77;;;16.30;99.90;;;;;;5082890;28;20209;-66
2021/04/22 08:52:33;;;;;;;3.25;1.77;;;16.50;99.90;;;;;;5090487;28;20266;-64
2021/04/22 08:54:59;;;;;;;2.72;2.03;;;16.40;99.90;;;;;;5076676;28;20235;-63
2021/04/22 08:57:26;;;;;;;6.25;2.08;;;16.50;99.90;;;;;;5081177;28;20206;-66
2021/04/22 08:59:54;;;;;;;4.10;2.17;;;16.70;99.90;;;;;;5085378;28;20311;-65
2021/04/22 09:02:21;;;;;;;4.90;2.28;;;16.90;99.90;;;;;;5092707;28;20213;-66
2021/04/22 09:04:47;;;;;;;3.03;2.72;;;16.80;99.90;;;;;;5065474;28;20217;-66
2021/04/22 09:07:15;;;;;;;6.33;2.60;;;17.00;99.90;;;;;;5063625;28;20448;-67
2021/04/22 09:09:43;;;;;;;5.18;2.30;;;17.30;99.90;;;;;;5068393;28;20209;-64
2021/04/22 09:12:18;;;;;;;1.65;1.55;;;17.60;99.90;;;;;;5060618;28;20202;-68
2021/04/22 09:14:56;;;;;;;3.03;2.40;;;17.70;99.90;;;;;;5068747;28;20222;-66
2021/04/22 09:17:24;;;;;;;3.65;2.50;;;17.70;99.90;;;;;;5066346;28;20201;-67
2021/04/22 09:19:52;;;;;;;3.10;2.00;;;17.30;99.90;;;;;;5059140;28;20202;-65
2021/04/22 09:22:19;;;;;;;2.47;2.28;;;17.90;99.90;;;;;;5072519;28;20214;-66
2021/04/22 09:24:46;;;;;;;5.00;2.20;;;17.90;99.90;;;;;;5069119;28;20252;-65
2021/04/22 09:27:15;;;;;;;3.25;2.40;;;18.10;99.90;;;;;;5065880;28;20698;-66
2021/04/22 09:29:45;;;;;;;2.95;2.65;;;17.80;99.90;;;;;;5071795;28;20209;-66
2021/04/22 09:32:15;;;;;;;4.10;2.70;;;17.10;99.90;;;;;;5067708;28;20210;-65
2021/04/22 09:34:47;;;;;;;3.45;1.92;;;18.50;99.90;;;;;;5061061;28;20283;-65
2021/04/22 09:37:15;;;;;;;2.53;2.17;;;20.00;99.90;;;;;;5065964;28;20202;-68
2021/04/22 09:39:42;;;;;;;2.25;1.77;;;19.90;99.90;;;;;;5066891;28;20268;-66
2021/04/22 09:42:10;;;;;;;2.20;2.00;;;20.40;99.90;;;;;;5073400;28;20666;-66
2021/04/22 09:44:39;;;;;;;5.03;2.10;;;19.40;99.90;;;;;;5073852;28;20213;-68
2021/04/22 09:47:08;;;;;;;2.60;2.40;;;20.20;99.90;;;;;;5073837;28;20211;-70
2021/04/22 09:49:45;;;;;;;2.42;2.22;;;21.90;99.90;;;;;;5073749;28;20206;-67
2021/04/22 09:52:14;;;;;;;5.90;2.35;;;22.60;99.90;;;;;;5072098;28;20692;-70
2021/04/22 09:54:48;;;;;;;3.42;2.25;;;22.00;99.90;;;;;;5072096;28;20237;-69
2021/04/22 09:57:23;;;;;;;2.42;1.40;;;23.40;99.90;;;;;;5072773;28;20202;-69
2021/04/22 09:59:50;;;;;;;5.55;2.42;;;21.80;99.90;;;;;;5090382;28;20627;-69
2021/04/22 10:02:18;;;;;;;3.47;1.73;;;22.30;99.90;;;;;;5087918;28;20239;-69
2021/04/22 10:04:46;;;;;;;4.25;2.15;;;22.30;99.90;;;;;;5057409;28;20294;-68
2021/04/22 10:07:22;;;;;;;5.50;1.75;;;22.20;99.90;;;;;;5076828;28;20210;-71
2021/04/22 10:09:51;;;;;;;6.35;2.10;;;23.50;99.90;;;;;;5085931;28;20197;-68
2021/04/22 10:12:27;;;;;;;4.75;2.25;;;23.40;99.90;;;;;;5085859;28;20209;-69
2021/04/22 10:14:55;;;;;;;2.20;2.00;;;24.10;99.90;;;;;;5069109;28;20221;-67
2021/04/22 10:17:23;;;;;;;2.25;1.98;;;24.00;99.90;;;;;;5087107;28;20214;-68
2021/04/22 10:20:01;;;;;;;4.20;2.13;;;25.00;99.90;;;;;;5077600;28;20202;-68
2021/04/22 10:22:32;;;;;;;5.18;2.17;;;22.90;99.90;;;;;;5087418;28;20201;-68
2021/04/22 10:25:01;;;;;;;2.05;1.60;;;23.10;99.90;;;;;;5067264;28;20205;-69
2021/04/22 10:27:28;;;;;;;2.65;1.90;;;21.90;99.90;;;;;;5088504;28;20210;-69
2021/04/22 10:29:55;;;;;;;2.08;1.83;;;22.00;99.90;;;;;;5088222;28;20228;-69
2021/04/22 10:32:22;;;;;;;2.22;2.03;;;21.30;99.90;;;;;;5088439;28;20292;-68
2021/04/22 10:34:50;;;;;;;3.80;1.77;;;19.10;99.90;;;;;;5086442;28;20591;-70
2021/04/22 10:37:17;;;;;;;1.88;1.70;;;18.70;99.90;;;;;;5088741;28;20210;-67
2021/04/22 10:39:45;;;;;;;4.20;2.95;;;18.30;99.90;;;;;;5086485;28;20206;-68
2021/04/22 10:42:13;;;;;;;3.75;1.70;;;18.20;99.90;;;;;;5088731;28;20297;-67
2021/04/22 10:44:39;;;;;;;3.03;2.10;;;17.60;99.90;;;;;;5086533;28;20225;-69
2021/04/22 10:47:06;;;;;;;4.03;2.08;;;18.00;99.90;;;;;;5088450;28;20205;-68
2021/04/22 10:49:33;;;;;;;5.70;2.42;;;18.40;99.90;;;;;;5087679;28;20209;-69
2021/04/22 10:52:02;;;;;;;4.47;2.42;;;18.60;99.90;;;;;;5087886;28;20218;-68
2021/04/22 10:54:29;;;;;;;3.10;2.53;;;18.80;99.90;;;;;;5089095;28;20278;-70
2021/04/22 10:57:05;;;;;;;3.15;1.75;;;18.50;99.90;;;;;;5089143;28;20217;-68
2021/04/22 10:59:33;;;;;;;2.40;2.20;;;18.00;99.90;;;;;;5064736;28;20254;-70
2021/04/22 11:02:10;;;;;;;2.40;1.70;;;18.30;99.90;;;;;;5091194;28;20291;-66
2021/04/22 11:04:36;;;;;;;4.57;2.10;;;18.50;99.90;;;;;;5064279;28;20204;-66
2021/04/22 11:07:14;;;;;;;2.38;2.15;;;19.10;99.90;;;;;;5090720;28;20254;-67
2021/04/22 11:09:41;;;;;;;3.90;2.75;;;19.10;99.90;;;;;;5091287;28;20209;-67
2021/04/22 11:12:11;;;;;;;5.10;3.13;;;19.00;99.90;;;;;;5090923;28;20239;-69
2021/04/22 11:14:43;;;;;;;5.93;2.22;;;18.70;99.90;;;;;;5090511;28;20240;-69
2021/04/22 11:17:11;;;;;;;3.25;2.20;;;18.40;99.90;;;;;;5090799;28;20218;-68
2021/04/22 11:19:40;;;;;;;3.45;2.28;;;19.10;99.90;;;;;;5090755;28;20640;-68
2021/04/22 11:22:13;;;;;;;2.13;1.92;;;19.30;99.90;;;;;;5090527;28;20574;-70
2021/04/22 11:24:43;;;;;;;5.82;3.40;;;18.90;99.90;;;;;;5090556;28;20250;-68
2021/04/22 11:27:12;;;;;;;2.72;2.22;;;18.60;99.90;;;;;;5090220;28;20673;-68
2021/04/22 11:29:41;;;;;;;6.13;2.75;;;18.90;99.90;;;;;;5090558;28;20921;-67
2021/04/22 11:32:33;;;;;;;3.95;2.47;;;19.20;99.90;;;;;;5090221;28;20213;-68
2021/04/22 11:35:13;;;;;;;3.08;1.95;;;19.10;99.90;;;;;;5080578;28;20225;-69
2021/04/22 11:37:42;;;;;;;2.33;2.13;;;19.50;99.90;;;;;;5090869;28;20224;-67
2021/04/22 11:40:14;;;;;;;4.57;2.05;;;19.50;99.90;;;;;;5089936;28;20571;-68
2021/04/22 11:42:42;;;;;;;2.78;2.10;;;19.40;99.90;;;;;;5073688;28;20202;-67
2021/04/22 11:45:12;;;;;;;2.58;2.38;;;19.60;99.90;;;;;;5088729;28;20236;-67
2021/04/22 11:47:48;;;;;;;3.17;2.42;;;19.00;99.90;;;;;;5090398;28;20217;-66
2021/04/22 11:50:18;;;;;;;3.60;2.83;;;18.60;99.90;;;;;;5089941;28;20201;-69
2021/04/22 11:52:51;;;;;;;2.25;2.05;;;18.80;99.90;;;;;;5090758;28;20205;-68
2021/04/22 11:55:22;;;;;;;5.40;2.45;;;19.30;99.90;;;;;;5090008;28;20278;-68
2021/04/22 11:58:00;;;;;;;3.00;2.75;;;19.40;99.90;;;;;;5090598;28;20205;-68
2021/04/22 12:00:29;;;;;;;5.50;2.88;;;19.10;99.90;;;;;;5090466;28;20746;-68
2021/04/22 12:02:57;;;;;;;3.63;1.90;;;19.40;99.90;;;;;;5090573;28;20680;-68
2021/04/22 12:05:24;;;;;;;3.50;2.40;;;19.40;99.90;;;;;;5090573;28;20231;-70
2021/04/22 12:07:59;;;;;;;1.77;1.63;;;18.90;99.90;;;;;;5090359;28;20206;-67
2021/04/22 12:10:27;;;;;;;8.57;2.72;;;19.00;99.90;;;;;;5090496;28;20266;-67
2021/04/22 12:13:02;;;;;;;2.20;2.00;;;18.70;99.90;;;;;;5092591;28;20198;-69
2021/04/22 12:15:30;;;;;;;2.72;2.03;;;18.90;99.90;;;;;;5094285;28;20327;-70
2021/04/22 12:17:56;;;;;;;3.67;2.58;;;19.30;99.90;;;;;;5094390;28;20206;-67
2021/04/22 12:20:23;;;;;;;2.55;2.15;;;19.50;99.90;;;;;;5093913;28;20209;-69
2021/04/22 12:22:49;;;;;;;2.78;2.58;;;19.60;99.90;;;;;;5093858;28;20669;-67
2021/04/22 12:25:18;;;;;;;2.22;2.05;;;19.50;99.90;;;;;;5093634;28;20232;-68
2021/04/22 12:27:48;;;;;;;4.05;2.40;;;19.00;99.90;;;;;;5094172;28;20210;-68
2021/04/22 12:30:28;;;;;;;2.45;1.70;;;18.60;99.90;;;;;;5093874;28;20209;-68
2021/04/22 12:33:09;;;;;;;4.80;2.40;;;19.10;99.90;;;;;;5094358;28;20208;-67
2021/04/22 12:35:36;;;;;;;2.00;1.70;;;19.00;99.90;;;;;;5093859;28;20254;-68
2021/04/22 12:38:20;;;;;;;2.42;1.85;;;18.90;99.90;;;;;;5093227;28;20691;-67
2021/04/22 12:40:55;;;;;;;2.10;1.90;;;18.60;99.90;;;;;;5093811;28;20708;-68
2021/04/22 12:43:22;;;;;;;2.13;2.00;;;18.40;99.90;;;;;;5093421;28;20205;-66
2021/04/22 12:45:48;;;;;;;4.15;1.85;;;18.70;99.90;;;;;;5093909;28;20244;-69
2021/04/22 12:48:16;;;;;;;2.15;1.75;;;18.80;99.90;;;;;;5093062;28;20224;-67
2021/04/22 12:50:45;;;;;;;3.70;2.10;;;19.30;99.90;;;;;;5093796;28;20677;-68